createdAt,value
2023-08-20T00:01:57.329Z,84.22
2023-08-20T00:04:29.238Z,84.20
2023-08-20T00:06:57.174Z,84.12
2023-08-20T00:09:27.720Z,84.17
2023-08-20T00:11:55.515Z,84.23
2023-08-20T00:14:54.433Z,84.20
2023-08-20T00:17:22.758Z,84.33
2023-08-20T00:19:50.877Z,84.40
2023-08-20T00:22:19.300Z,84.39
2023-08-20T00:24:47.350Z,84.41
2023-08-20T00:27:15.164Z,84.46
2023-08-20T00:29:43.045Z,84.55
2023-08-20T00:32:10.880Z,84.61
2023-08-20T00:34:38.709Z,84.61
2023-08-20T00:37:06.467Z,84.66
2023-08-20T00:39:34.311Z,84.65
2023-08-20T00:42:02.187Z,84.68
2023-08-20T00:44:29.919Z,84.74
2023-08-20T00:46:58.445Z,84.84
2023-08-20T00:49:26.421Z,84.90
2023-08-20T00:51:54.645Z,84.99
2023-08-20T00:54:23.833Z,85.04
2023-08-20T00:56:51.973Z,85.07
2023-08-20T00:59:24.025Z,85.07
2023-08-20T01:01:52.237Z,85.06
2023-08-20T01:04:21.134Z,85.07
2023-08-20T01:07:22.426Z,85.06
2023-08-20T01:10:19.639Z,85.08
2023-08-20T01:12:47.500Z,84.99
2023-08-20T01:15:15.970Z,84.98
2023-08-20T01:17:44.707Z,85.10
2023-08-20T01:20:14.532Z,85.16
2023-08-20T01:22:46.151Z,85.20
2023-08-20T01:25:43.043Z,85.20
2023-08-20T01:29:40.507Z,85.37
2023-08-20T01:32:09.249Z,85.31
2023-08-20T01:34:37.131Z,85.36
2023-08-20T01:37:05.079Z,85.40
2023-08-20T01:39:32.853Z,85.35
2023-08-20T01:42:01.289Z,85.33
2023-08-20T01:44:29.165Z,85.50
2023-08-20T01:46:56.998Z,85.62
2023-08-20T01:49:24.723Z,85.69
2023-08-20T01:51:52.503Z,85.64
2023-08-20T01:54:20.269Z,85.54
2023-08-20T01:56:48.051Z,85.38
2023-08-20T01:59:15.928Z,85.32
2023-08-20T02:01:43.813Z,85.35
2023-08-20T02:04:11.544Z,85.45
2023-08-20T02:06:39.910Z,85.54
2023-08-20T02:09:07.752Z,85.62
2023-08-20T02:11:37.008Z,85.67
2023-08-20T02:14:07.679Z,85.71
2023-08-20T02:16:35.528Z,85.71
2023-08-20T02:19:04.043Z,85.68
2023-08-20T02:21:31.868Z,85.76
2023-08-20T02:24:00.732Z,85.84
2023-08-20T02:26:28.593Z,85.85
2023-08-20T02:28:57.651Z,85.87
2023-08-20T02:31:25.442Z,85.95
2023-08-20T02:33:53.259Z,85.98
2023-08-20T02:36:21.128Z,86.03
2023-08-20T02:38:49.069Z,86.11
2023-08-20T02:41:16.860Z,86.17
2023-08-20T02:44:05.621Z,86.20
2023-08-20T02:46:33.385Z,86.17
2023-08-20T02:49:02.539Z,86.13
2023-08-20T02:51:30.468Z,86.16
2023-08-20T02:53:58.290Z,86.30
2023-08-20T02:56:26.225Z,86.34
2023-08-20T02:58:53.998Z,86.41
2023-08-20T03:01:27.028Z,86.43
2023-08-20T03:03:55.334Z,86.45
2023-08-20T03:06:23.082Z,86.44
2023-08-20T03:08:50.929Z,86.38
2023-08-20T03:11:18.750Z,86.40
2023-08-20T03:13:46.930Z,86.58
2023-08-20T03:16:14.827Z,86.80
2023-08-20T03:18:42.806Z,86.89
2023-08-20T03:21:10.619Z,86.89
2023-08-20T03:23:39.328Z,86.80
2023-08-20T03:26:07.548Z,87.01
2023-08-20T03:28:35.312Z,87.12
2023-08-20T03:31:03.209Z,87.10
2023-08-20T03:33:31.097Z,87.03
2023-08-20T03:36:00.253Z,87.02
2023-08-20T03:38:28.502Z,87.01
2023-08-20T03:40:56.498Z,86.98
2023-08-20T03:43:24.294Z,86.98
2023-08-20T03:45:53.103Z,86.98
2023-08-20T03:48:22.379Z,86.93
2023-08-20T03:50:50.425Z,86.83
2023-08-20T03:53:18.949Z,86.82
2023-08-20T03:55:50.677Z,86.79
2023-08-20T03:58:18.484Z,86.79
2023-08-20T04:00:47.333Z,86.78
2023-08-20T04:03:34.659Z,86.77
2023-08-20T04:06:02.449Z,86.77
2023-08-20T04:08:30.815Z,86.81
2023-08-20T04:10:58.921Z,86.79
2023-08-20T04:13:26.660Z,86.76
2023-08-20T04:15:54.697Z,86.74
2023-08-20T04:18:23.281Z,86.74
2023-08-20T04:20:53.482Z,86.73
2023-08-20T04:23:21.268Z,86.74
2023-08-20T04:25:49.095Z,86.75
2023-08-20T04:28:16.837Z,86.77
2023-08-20T04:30:45.019Z,86.75
2023-08-20T04:33:12.846Z,86.75
2023-08-20T04:35:40.635Z,86.75
2023-08-20T04:38:09.030Z,86.66
2023-08-20T04:40:36.906Z,86.65
2023-08-20T04:43:05.711Z,86.60
2023-08-20T04:45:33.492Z,86.61
2023-08-20T04:48:01.951Z,86.56
2023-08-20T04:50:29.787Z,86.50
2023-08-20T04:53:00.191Z,86.41
2023-08-20T04:55:30.775Z,86.32
2023-08-20T04:58:03.844Z,86.20
2023-08-20T05:00:31.722Z,86.08
2023-08-20T05:02:59.862Z,85.93
2023-08-20T05:05:28.132Z,85.82
2023-08-20T05:07:56.193Z,85.62
2023-08-20T05:10:24.376Z,85.37
2023-08-20T05:12:52.505Z,85.24
2023-08-20T05:15:20.343Z,85.17
2023-08-20T05:17:51.179Z,84.83
2023-08-20T05:20:19.011Z,84.50
2023-08-20T05:22:46.798Z,84.25
2023-08-20T05:25:14.595Z,84.08
2023-08-20T05:27:42.476Z,83.54
2023-08-20T05:30:24.359Z,83.44
2023-08-20T05:44:29.342Z,75.59
2023-08-20T05:46:57.163Z,73.51
2023-08-20T05:49:27.031Z,71.62
2023-08-20T05:51:56.092Z,70.63
2023-08-20T05:54:23.989Z,69.60
2023-08-20T05:56:51.813Z,69.08
2023-08-20T06:08:34.514Z,63.24
2023-08-20T06:14:29.103Z,61.22
2023-08-20T06:16:59.620Z,60.22
2023-08-20T06:19:31.049Z,58.99
2023-08-20T06:21:59.577Z,58.34
2023-08-20T06:28:06.243Z,57.62
2023-08-20T06:30:34.040Z,58.77
2023-08-20T06:33:02.125Z,60.64
2023-08-20T06:35:30.168Z,62.71
2023-08-20T06:38:34.085Z,63.96
2023-08-20T06:41:02.488Z,64.67
2023-08-20T06:43:40.607Z,64.93
2023-08-20T06:46:13.198Z,65.66
2023-08-20T06:48:44.343Z,66.31
2023-08-20T06:54:46.910Z,65.50
2023-08-20T06:57:15.369Z,65.88
2023-08-20T06:59:44.786Z,65.14
2023-08-20T07:02:13.502Z,64.43
2023-08-20T07:04:41.744Z,64.24
2023-08-20T07:07:17.438Z,64.26
2023-08-20T07:10:18.500Z,64.13
2023-08-20T07:12:46.814Z,64.19
2023-08-20T07:15:15.977Z,64.03
2023-08-20T07:17:46.363Z,62.93
2023-08-20T07:20:57.140Z,62.68
2023-08-20T07:23:25.932Z,62.68
2023-08-20T07:28:57.914Z,61.46
2023-08-20T07:36:32.349Z,60.92
2023-08-20T07:39:02.127Z,59.70
2023-08-20T07:41:32.571Z,58.95
2023-08-20T07:44:00.458Z,59.38
2023-08-20T07:46:28.887Z,59.06
2023-08-20T07:48:58.121Z,57.76
2023-08-20T07:51:26.557Z,55.95
2023-08-20T07:53:54.536Z,54.63
2023-08-20T07:56:22.777Z,54.97
2023-08-20T07:58:50.701Z,54.93
2023-08-20T08:01:18.606Z,54.33
2023-08-20T08:03:46.566Z,51.74
2023-08-20T08:06:14.956Z,50.17
2023-08-20T08:11:43.895Z,48.00
2023-08-20T08:14:12.924Z,48.14
2023-08-20T08:16:40.859Z,47.57
2023-08-20T08:19:09.138Z,46.88
2023-08-20T08:21:37.028Z,46.13
2023-08-20T08:24:05.339Z,46.76
2023-08-20T08:26:35.081Z,46.68
2023-08-20T08:29:04.574Z,45.68
2023-08-20T08:31:33.182Z,44.86
2023-08-20T08:34:02.348Z,44.14
2023-08-20T08:36:30.325Z,43.07
2023-08-20T08:39:00.501Z,42.99
2023-08-20T08:41:30.593Z,42.34
2023-08-20T08:43:59.207Z,43.14
2023-08-20T08:46:27.651Z,43.72
2023-08-20T08:48:55.931Z,42.80
2023-08-20T08:51:25.284Z,42.28
2023-08-20T08:53:54.019Z,42.64
2023-08-20T08:56:21.840Z,40.73
2023-08-20T08:58:49.665Z,40.12
2023-08-20T09:01:17.618Z,39.75
2023-08-20T09:03:45.997Z,40.48
2023-08-20T09:06:14.257Z,39.90
2023-08-20T09:08:42.416Z,41.00
2023-08-20T09:11:10.736Z,40.16
2023-08-20T09:14:24.607Z,38.83
2023-08-20T09:20:54.113Z,39.97
2023-08-20T09:23:38.487Z,39.33
2023-08-20T09:26:57.597Z,37.19
2023-08-20T09:29:58.546Z,37.99
2023-08-20T09:33:09.442Z,39.38
2023-08-20T09:35:36.132Z,39.34
2023-08-20T09:42:53.792Z,38.33
2023-08-20T09:45:31.089Z,36.59
2023-08-20T09:48:00.901Z,36.59
2023-08-20T09:51:31.702Z,36.02
2023-08-20T09:54:52.655Z,36.26
2023-08-20T09:57:48.688Z,36.06
2023-08-20T10:00:15.841Z,35.65
2023-08-20T10:02:52.033Z,35.76
2023-08-20T10:05:39.730Z,34.93
2023-08-20T10:08:35.541Z,35.17
2023-08-20T10:11:36.355Z,34.37
2023-08-20T10:15:13.983Z,34.44
2023-08-20T10:17:47.491Z,36.25
2023-08-20T10:20:17.381Z,37.12
2023-08-20T10:23:25.313Z,36.77
2023-08-20T10:25:55.754Z,36.19
2023-08-20T10:28:27.698Z,35.21
2023-08-20T10:31:12.080Z,34.39
2023-08-20T10:33:51.211Z,34.64
2023-08-20T10:37:05.421Z,34.97
2023-08-20T10:40:41.517Z,34.90
2023-08-20T10:43:09.803Z,34.12
2023-08-20T10:48:42.544Z,33.70
2023-08-20T10:51:42.422Z,33.04
2023-08-20T11:01:03.208Z,30.70
2023-08-20T11:04:07.331Z,30.53
2023-08-20T11:06:36.320Z,31.72
2023-08-20T11:09:05.071Z,32.83
2023-08-20T11:11:48.873Z,31.20
2023-08-20T11:14:16.802Z,32.09
2023-08-20T11:16:46.671Z,32.61
2023-08-20T11:19:35.698Z,31.36
2023-08-20T11:22:05.792Z,30.44
2023-08-20T11:24:49.489Z,30.13
2023-08-20T11:27:42.103Z,29.29
2023-08-20T11:30:13.349Z,29.67
2023-08-20T11:35:37.512Z,28.56
2023-08-20T11:41:23.414Z,28.37
2023-08-20T11:47:26.931Z,28.12
2023-08-20T11:50:06.066Z,29.13
2023-08-20T11:52:44.444Z,30.13
2023-08-20T11:55:36.620Z,29.79
2023-08-20T11:58:05.690Z,29.54
2023-08-20T12:00:37.199Z,30.20
2023-08-20T12:03:41.310Z,28.98
2023-08-20T12:06:26.474Z,28.48
2023-08-20T12:15:42.123Z,31.00
2023-08-20T12:28:47.564Z,34.76
2023-08-20T12:31:19.533Z,36.50
2023-08-20T12:34:21.961Z,37.21
2023-08-20T12:37:26.020Z,37.83
2023-08-20T12:39:53.879Z,36.48
2023-08-20T12:42:25.037Z,33.48
2023-08-20T12:45:21.624Z,33.36
2023-08-20T12:47:51.549Z,33.93
2023-08-20T12:50:19.359Z,34.98
2023-08-20T12:53:11.261Z,35.88
2023-08-20T12:56:14.247Z,36.90
2023-08-20T12:58:46.376Z,38.22
2023-08-20T13:01:22.795Z,37.92
2023-08-20T13:03:50.961Z,36.15
2023-08-20T13:06:19.459Z,34.25
2023-08-20T13:08:47.562Z,34.04
2023-08-20T13:11:47.128Z,32.28
2023-08-20T13:14:15.999Z,33.64
2023-08-20T13:16:46.626Z,34.22
2023-08-20T13:19:15.613Z,34.41
2023-08-20T13:21:44.220Z,34.40
2023-08-20T13:24:12.393Z,34.67
2023-08-20T13:26:40.475Z,34.05
2023-08-20T13:29:08.496Z,33.22
2023-08-20T13:31:37.705Z,32.91
2023-08-20T13:34:06.762Z,32.20
2023-08-20T13:39:38.851Z,32.51
2023-08-20T13:42:06.865Z,33.45
2023-08-20T13:44:34.800Z,34.13
2023-08-20T13:47:21.743Z,33.54
2023-08-20T13:50:05.830Z,34.55
2023-08-20T13:52:34.350Z,36.19
2023-08-20T13:55:02.572Z,35.01
2023-08-20T13:57:30.500Z,34.22
2023-08-20T13:59:59.780Z,33.57
2023-08-20T14:02:28.988Z,33.36
2023-08-20T14:05:05.558Z,33.25
2023-08-20T14:07:36.206Z,33.34
2023-08-20T14:10:08.699Z,34.36
2023-08-20T14:12:40.408Z,35.58
2023-08-20T14:15:10.579Z,35.34
2023-08-20T14:17:39.065Z,35.17
2023-08-20T14:20:09.195Z,34.56
2023-08-20T14:22:37.353Z,34.33
2023-08-20T14:25:05.969Z,34.48
2023-08-20T14:27:36.366Z,35.09
2023-08-20T14:30:05.466Z,35.32
2023-08-20T14:32:33.537Z,34.06
2023-08-20T14:35:02.045Z,33.45
2023-08-20T14:37:30.585Z,32.85
2023-08-20T14:39:59.104Z,33.01
2023-08-20T14:42:27.302Z,32.70
2023-08-20T14:44:56.590Z,32.99
2023-08-20T14:47:27.985Z,32.26
2023-08-20T14:49:56.413Z,31.02
2023-08-20T14:52:45.485Z,31.71
2023-08-20T14:55:26.014Z,30.47
2023-08-20T14:57:54.079Z,31.74
2023-08-20T15:00:24.170Z,32.11
2023-08-20T15:02:52.756Z,30.53
2023-08-20T15:05:20.722Z,29.66
2023-08-20T15:07:49.157Z,29.86
2023-08-20T15:10:17.300Z,29.75
2023-08-20T15:12:45.641Z,30.40
2023-08-20T15:15:13.554Z,30.23
2023-08-20T15:17:41.698Z,30.01
2023-08-20T15:20:25.865Z,30.17
2023-08-20T15:22:53.721Z,31.28
2023-08-20T15:25:21.671Z,31.46
2023-08-20T15:27:49.515Z,31.33
2023-08-20T15:30:19.040Z,30.75
2023-08-20T15:32:46.936Z,31.16
2023-08-20T15:35:15.065Z,31.38
2023-08-20T15:37:45.283Z,31.38
2023-08-20T15:40:17.473Z,31.64
2023-08-20T15:42:45.462Z,31.73
2023-08-20T15:45:13.339Z,32.90
2023-08-20T15:47:41.424Z,32.94
2023-08-20T15:50:10.420Z,33.51
2023-08-20T15:52:38.334Z,33.48
2023-08-20T15:55:06.610Z,33.90
2023-08-20T15:57:35.243Z,34.95
2023-08-20T16:00:05.143Z,35.54
2023-08-20T16:02:40.850Z,36.00
2023-08-20T16:05:25.132Z,36.98
2023-08-20T16:07:53.722Z,37.69
2023-08-20T16:10:21.776Z,37.63
2023-08-20T16:12:50.021Z,38.13
2023-08-20T16:15:18.360Z,38.62
2023-08-20T16:17:46.184Z,38.51
2023-08-20T16:20:16.100Z,37.86
2023-08-20T16:22:44.925Z,38.09
2023-08-20T16:25:12.893Z,38.13
2023-08-20T16:27:42.025Z,38.26
2023-08-20T16:30:12.307Z,38.69
2023-08-20T16:32:40.352Z,39.13
2023-08-20T16:35:14.332Z,39.91
2023-08-20T16:37:43.356Z,39.97
2023-08-20T16:40:21.669Z,40.38
2023-08-20T16:42:49.995Z,40.92
2023-08-20T16:45:18.668Z,41.32
2023-08-20T16:47:46.576Z,41.87
2023-08-20T16:50:14.895Z,41.77
2023-08-20T16:52:42.938Z,42.10
2023-08-20T16:55:11.154Z,42.33
2023-08-20T16:57:39.400Z,42.71
2023-08-20T17:00:08.134Z,43.38
2023-08-20T17:02:38.904Z,43.62
2023-08-20T17:05:07.117Z,43.84
2023-08-20T17:07:35.166Z,43.95
2023-08-20T17:10:03.463Z,44.06
2023-08-20T17:15:10.307Z,44.39
2023-08-20T17:17:41.273Z,44.64
2023-08-20T17:20:29.381Z,44.91
2023-08-20T17:23:50.172Z,45.48
2023-08-20T17:26:29.445Z,45.67
2023-08-20T17:30:13.977Z,45.79
2023-08-20T17:32:51.849Z,46.09
2023-08-20T17:35:26.855Z,46.37
2023-08-20T17:38:01.767Z,46.76
2023-08-20T17:40:33.168Z,47.19
2023-08-20T17:43:17.366Z,47.62
2023-08-20T17:46:14.859Z,48.42
2023-08-20T17:50:11.399Z,49.92
2023-08-20T17:53:27.757Z,50.62
2023-08-20T17:56:01.185Z,51.19
2023-08-20T17:58:36.090Z,52.08
2023-08-20T18:01:14.805Z,52.84
2023-08-20T18:07:35.050Z,54.05
2023-08-20T18:10:46.985Z,54.35
2023-08-20T18:13:56.752Z,54.76
2023-08-20T18:16:28.608Z,54.97
2023-08-20T18:19:05.146Z,55.51
2023-08-20T18:21:32.923Z,55.73
2023-08-20T18:24:01.629Z,55.90
2023-08-20T18:26:29.520Z,56.08
2023-08-20T18:28:59.341Z,56.62
2023-08-20T18:31:27.154Z,57.18
2023-08-20T18:33:55.080Z,57.37
2023-08-20T18:36:24.026Z,57.81
2023-08-20T18:38:54.166Z,58.46
2023-08-20T18:41:23.623Z,59.12
2023-08-20T18:43:51.705Z,59.48
2023-08-20T18:46:21.688Z,59.71
2023-08-20T18:48:49.930Z,59.44
2023-08-20T18:51:26.088Z,60.04
2023-08-20T18:53:53.882Z,60.28
2023-08-20T18:56:21.739Z,59.37
2023-08-20T18:58:49.576Z,59.33
2023-08-20T19:01:18.265Z,59.51
2023-08-20T19:03:48.085Z,60.02
2023-08-20T19:06:16.997Z,60.82
2023-08-20T19:08:51.518Z,60.68
2023-08-20T19:11:20.386Z,60.66
2023-08-20T19:13:48.826Z,60.91
2023-08-20T19:16:16.950Z,60.35
2023-08-20T19:18:45.052Z,60.35
2023-08-20T19:21:12.901Z,59.84
2023-08-20T19:23:42.652Z,59.35
2023-08-20T19:26:10.702Z,59.84
2023-08-20T19:28:39.368Z,60.76
2023-08-20T19:31:07.226Z,61.13
2023-08-20T19:33:35.263Z,61.20
2023-08-20T19:36:04.567Z,61.65
2023-08-20T19:38:33.458Z,61.68
2023-08-20T19:41:01.822Z,61.77
2023-08-20T19:43:29.849Z,62.24
2023-08-20T19:45:57.786Z,62.71
2023-08-20T19:48:25.661Z,63.19
2023-08-20T19:51:32.008Z,63.77
2023-08-20T19:53:58.481Z,63.91
2023-08-20T19:56:24.987Z,64.05
2023-08-20T19:58:54.889Z,64.49
2023-08-20T20:01:25.005Z,64.98
2023-08-20T20:03:52.760Z,65.01
2023-08-20T20:06:20.009Z,64.82
2023-08-20T20:08:46.568Z,65.30
2023-08-20T20:11:13.248Z,65.72
2023-08-20T20:13:39.877Z,65.95
2023-08-20T20:16:06.489Z,66.08
2023-08-20T20:18:33.009Z,66.05
2023-08-20T20:20:59.879Z,65.92
2023-08-20T20:23:26.353Z,65.98
2023-08-20T20:25:53.045Z,66.30
2023-08-20T20:28:19.660Z,66.58
2023-08-20T20:30:46.998Z,66.86
2023-08-20T20:33:13.802Z,66.98
2023-08-20T20:35:40.314Z,67.27
2023-08-20T20:38:06.988Z,67.76
2023-08-20T20:40:34.003Z,67.87
2023-08-20T20:43:00.466Z,68.02
2023-08-20T20:45:27.043Z,67.98
2023-08-20T20:47:54.086Z,68.03
2023-08-20T20:50:20.975Z,68.21
2023-08-20T20:52:47.433Z,68.35
2023-08-20T20:55:17.193Z,68.65
2023-08-20T20:57:44.500Z,69.00
2023-08-20T21:00:11.311Z,68.91
2023-08-20T21:02:38.117Z,69.06
2023-08-20T21:05:05.514Z,69.09
2023-08-20T21:07:32.058Z,69.09
2023-08-20T21:09:59.067Z,69.48
2023-08-20T21:12:26.330Z,69.75
2023-08-20T21:14:52.722Z,70.05
2023-08-20T21:17:19.789Z,70.50
2023-08-20T21:19:46.297Z,70.65
2023-08-20T21:22:13.925Z,70.83
2023-08-20T21:24:41.591Z,71.03
2023-08-20T21:27:09.417Z,71.22
2023-08-20T21:29:37.331Z,71.30
2023-08-20T21:32:04.028Z,71.56
2023-08-20T21:34:31.262Z,71.74
2023-08-20T21:36:59.017Z,71.86
2023-08-20T21:39:25.864Z,72.06
2023-08-20T21:41:53.230Z,71.86
2023-08-20T21:44:19.733Z,71.82
2023-08-20T21:46:46.335Z,72.03
2023-08-20T21:49:13.551Z,72.02
2023-08-20T21:51:40.310Z,72.38
2023-08-20T21:54:07.614Z,72.44
2023-08-20T21:56:33.973Z,72.50
2023-08-20T21:59:03.185Z,72.28
2023-08-20T22:01:29.791Z,72.47
2023-08-20T22:03:56.733Z,72.43
2023-08-20T22:06:23.341Z,72.73
2023-08-20T22:08:49.828Z,73.16
2023-08-20T22:11:17.561Z,73.20
2023-08-20T22:13:44.658Z,73.45
2023-08-20T22:16:13.781Z,73.82
2023-08-20T22:18:40.333Z,74.04
2023-08-20T22:21:06.897Z,74.29
2023-08-20T22:23:33.367Z,74.48
2023-08-20T22:25:59.971Z,74.64
2023-08-20T22:28:26.513Z,74.72
2023-08-20T22:30:52.952Z,74.70
2023-08-20T22:33:19.464Z,74.71
2023-08-20T22:35:50.081Z,74.52
2023-08-20T22:38:16.652Z,74.63
2023-08-20T22:40:43.875Z,74.31
2023-08-20T22:43:10.326Z,74.46
2023-08-20T22:45:36.983Z,74.60
2023-08-20T22:48:04.043Z,74.84
2023-08-20T22:50:30.913Z,75.11
2023-08-20T22:52:58.924Z,75.39
2023-08-20T22:55:25.550Z,75.61
2023-08-20T22:57:53.091Z,75.77
2023-08-20T23:00:20.478Z,75.94
2023-08-20T23:03:13.194Z,75.92
2023-08-20T23:05:39.976Z,76.02
2023-08-20T23:08:07.101Z,76.15
2023-08-20T23:10:33.726Z,76.22
2023-08-20T23:13:00.213Z,76.15
2023-08-20T23:15:26.678Z,76.04
2023-08-20T23:17:54.247Z,75.93
2023-08-20T23:20:20.835Z,75.92
2023-08-20T23:22:48.475Z,76.10
2023-08-20T23:25:15.028Z,76.42
2023-08-20T23:27:42.904Z,76.72
2023-08-20T23:30:10.233Z,76.91
2023-08-20T23:32:37.124Z,77.14
2023-08-20T23:35:04.532Z,77.40
2023-08-20T23:37:31.142Z,77.65
2023-08-20T23:39:57.675Z,77.79
2023-08-20T23:42:24.135Z,77.88
2023-08-20T23:44:50.743Z,77.92
2023-08-20T23:47:17.324Z,78.05
2023-08-20T23:49:43.924Z,78.26
2023-08-20T23:52:10.517Z,78.37
2023-08-20T23:54:37.072Z,78.40
2023-08-20T23:57:03.636Z,78.48
2023-08-20T23:59:31.224Z,78.71
